<?xml version="1.0" encoding="UTF-8" standalone="no" ?><gpx xmlns="http://www.topografix.com/GPX/1/1" xmlns:gpxx="http://www.garmin.com/xmlschemas/GpxExtensions/v3" xmlns:wptx1="http://www.garmin.com/xmlschemas/WaypointExtension/v1" xmlns:gpxtpx="http://www.garmin.com/xmlschemas/TrackPointExtension/v1" creator="Dakota 20" version="1.1" xmlns:xsi="http://www.w3.org/2001/XMLSchema-instance" xsi:schemaLocation="http://www.topografix.com/GPX/1/1 http://www.topografix.com/GPX/1/1/gpx.xsd http://www.garmin.com/xmlschemas/GpxExtensions/v3 http://www8.garmin.com/xmlschemas/GpxExtensionsv3.xsd http://www.garmin.com/xmlschemas/WaypointExtension/v1 http://www8.garmin.com/xmlschemas/WaypointExtensionv1.xsd http://www.garmin.com/xmlschemas/TrackPointExtension/v1 http://www.garmin.com/xmlschemas/TrackPointExtensionv1.xsd"><metadata><link href="http://www.garmin.com"><text>Garmin International</text></link><time>2017-04-05T19:54:51Z</time></metadata><trk><name>Current Track: 05 APR 2017 10:10</name><extensions><gpxx:TrackExtension><gpxx:DisplayColor>Cyan</gpxx:DisplayColor></gpxx:TrackExtension></extensions><trkseg><trkpt lat="51.7966833618" lon="-2.4242212437"><ele>12.15</ele><time>2017-04-05T09:10:27Z</time></trkpt><trkpt lat="51.7966820206" lon="-2.4242453836"><ele>11.67</ele><time>2017-04-05T09:10:48Z</time></trkpt><trkpt lat="51.7966670170" lon="-2.4242938310"><ele>11.19</ele><time>2017-04-05T09:11:03Z</time></trkpt><trkpt lat="51.7965558730" lon="-2.4244074058"><ele>11.67</ele><time>2017-04-05T09:11:16Z</time></trkpt><trkpt lat="51.7964246124" lon="-2.4245099165"><ele>11.19</ele><time>2017-04-05T09:11:30Z</time></trkpt><trkpt lat="51.7962242011" lon="-2.4246156961"><ele>11.67</ele><time>2017-04-05T09:11:47Z</time></trkpt><trkpt lat="51.7960657831" lon="-2.4247882795"><ele>12.15</ele><time>2017-04-05T09:12:06Z</time></trkpt><trkpt lat="51.7959760129" lon="-2.4249562528"><ele>12.15</ele><time>2017-04-05T09:12:23Z</time></trkpt><trkpt lat="51.7958937865" lon="-2.4251177721"><ele>12.15</ele><time>2017-04-05T09:12:38Z</time></trkpt><trkpt lat="51.7957653757" lon="-2.4253418203"><ele>12.15</ele><time>2017-04-05T09:12:56Z</time></trkpt><trkpt lat="51.7956404854" lon="-2.4255706463"><ele>11.67</ele><time>2017-04-05T09:13:14Z</time></trkpt><trkpt lat="51.7954947241" lon="-2.4256825447"><ele>12.63</ele><time>2017-04-05T09:13:30Z</time></trkpt><trkpt lat="51.7953461967" lon="-2.4257837143"><ele>12.63</ele><time>2017-04-05T09:13:45Z</time></trkpt><trkpt lat="51.7952047940" lon="-2.4258612469"><ele>13.60</ele><time>2017-04-05T09:14:01Z</time></trkpt><trkpt lat="51.7952885292" lon="-2.4258184992"><ele>12.63</ele><time>2017-04-05T09:14:21Z</time></trkpt><trkpt lat="51.7952649761" lon="-2.4258418847"><ele>13.12</ele><time>2017-04-05T09:14:40Z</time></trkpt><trkpt lat="51.7951757926" lon="-2.4258732330"><ele>12.15</ele><time>2017-04-05T09:14:52Z</time></trkpt><trkpt lat="51.7951363139" lon="-2.4258956965"><ele>12.63</ele><time>2017-04-05T09:14:56Z</time></trkpt><trkpt lat="51.7949985154" lon="-2.4259659369"><ele>12.63</ele><time>2017-04-05T09:15:12Z</time></trkpt><trkpt lat="51.7949354835" lon="-2.4259961117"><ele>12.63</ele><time>2017-04-05T09:15:26Z</time></trkpt><trkpt lat="51.7949061468" lon="-2.4260145519"><ele>13.12</ele><time>2017-04-05T09:15:43Z</time></trkpt><trkpt lat="51.7948531732" lon="-2.4260295555"><ele>12.63</ele><time>2017-04-05T09:15:47Z</time></trkpt><trkpt lat="51.7948210705" lon="-2.4260430504"><ele>12.63</ele><time>2017-04-05T09:15:50Z</time></trkpt><trkpt lat="51.7947812565" lon="-2.4260789249"><ele>12.63</ele><time>2017-04-05T09:15:56Z</time></trkpt><trkpt lat="51.7947580386" lon="-2.4260858819"><ele>12.63</ele><time>2017-04-05T09:15:58Z</time></trkpt><trkpt lat="51.7946096789" lon="-2.4261815194"><ele>12.63</ele><time>2017-04-05T09:16:15Z</time></trkpt><trkpt lat="51.7944561224" lon="-2.4262221716"><ele>12.63</ele><time>2017-04-05T09:16:30Z</time></trkpt><trkpt lat="51.7942833714" lon="-2.4262750614"><ele>12.63</ele><time>2017-04-05T09:16:47Z</time></trkpt><trkpt lat="51.7941426393" lon="-2.4263062421"><ele>12.15</ele><time>2017-04-05T09:17:04Z</time></trkpt><trkpt lat="51.7941048369" lon="-2.4263805058"><ele>13.12</ele><time>2017-04-05T09:17:20Z</time></trkpt><trkpt lat="51.7941070162" lon="-2.4263829365"><ele>12.63</ele><time>2017-04-05T09:17:44Z</time></trkpt><trkpt lat="51.7941067647" lon="-2.4263680167"><ele>12.15</ele><time>2017-04-05T09:17:52Z</time></trkpt><trkpt lat="51.7939621769" lon="-2.4264449626"><ele>12.63</ele><time>2017-04-05T09:18:07Z</time></trkpt><trkpt lat="51.7936978955" lon="-2.4263797514"><ele>12.15</ele><time>2017-04-05T09:18:24Z</time></trkpt><trkpt lat="51.7936724145" lon="-2.4263768177"><ele>12.63</ele><time>2017-04-05T09:18:26Z</time></trkpt><trkpt lat="51.7934024334" lon="-2.4263783265"><ele>12.15</ele><time>2017-04-05T09:18:45Z</time></trkpt><trkpt lat="51.7931904551" lon="-2.4264663365"><ele>12.63</ele><time>2017-04-05T09:19:03Z</time></trkpt><trkpt lat="51.7929752916" lon="-2.4263748061"><ele>11.67</ele><time>2017-04-05T09:19:22Z</time></trkpt><trkpt lat="51.7929703463" lon="-2.4263362493"><ele>12.15</ele><time>2017-04-05T09:19:24Z</time></trkpt><trkpt lat="51.7929353099" lon="-2.4260080140"><ele>11.67</ele><time>2017-04-05T09:19:44Z</time></trkpt><trkpt lat="51.7928948253" lon="-2.4257120490"><ele>11.19</ele><time>2017-04-05T09:20:02Z</time></trkpt><trkpt lat="51.7928359844" lon="-2.4254110549"><ele>10.71</ele><time>2017-04-05T09:20:22Z</time></trkpt><trkpt lat="51.7928113416" lon="-2.4250960629"><ele>9.75</ele><time>2017-04-05T09:20:40Z</time></trkpt><trkpt lat="51.7927943263" lon="-2.4248470366"><ele>9.27</ele><time>2017-04-05T09:20:59Z</time></trkpt><trkpt lat="51.7927802447" lon="-2.4246400036"><ele>9.27</ele><time>2017-04-05T09:21:14Z</time></trkpt><trkpt lat="51.7927467171" lon="-2.4243364949"><ele>8.31</ele><time>2017-04-05T09:21:32Z</time></trkpt><trkpt lat="51.7926805839" lon="-2.4241280369"><ele>9.27</ele><time>2017-04-05T09:21:47Z</time></trkpt><trkpt lat="51.7925795820" lon="-2.4239180703"><ele>8.79</ele><time>2017-04-05T09:22:05Z</time></trkpt><trkpt lat="51.7924857046" lon="-2.4237433914"><ele>8.79</ele><time>2017-04-05T09:22:20Z</time></trkpt><trkpt lat="51.7923985329" lon="-2.4235342629"><ele>8.79</ele><time>2017-04-05T09:22:36Z</time></trkpt><trkpt lat="51.7923832778" lon="-2.4234921020"><ele>8.79</ele><time>2017-04-05T09:22:40Z</time></trkpt><trkpt lat="51.7922786716" lon="-2.4232733343"><ele>8.31</ele><time>2017-04-05T09:22:58Z</time></trkpt><trkpt lat="51.7921973672" lon="-2.4230526388"><ele>8.79</ele><time>2017-04-05T09:23:15Z</time></trkpt><trkpt lat="51.7920854688" lon="-2.4228346255"><ele>8.31</ele><time>2017-04-05T09:23:31Z</time></trkpt><trkpt lat="51.7919909209" lon="-2.4226331245"><ele>9.27</ele><time>2017-04-05T09:23:48Z</time></trkpt><trkpt lat="51.7918957863" lon="-2.4224015325"><ele>8.79</ele><time>2017-04-05T09:24:06Z</time></trkpt><trkpt lat="51.7918206844" lon="-2.4221788254"><ele>8.79</ele><time>2017-04-05T09:24:23Z</time></trkpt><trkpt lat="51.7917404696" lon="-2.4220354110"><ele>8.79</ele><time>2017-04-05T09:24:36Z</time></trkpt><trkpt lat="51.7916907649" lon="-2.4219731335"><ele>8.79</ele><time>2017-04-05T09:24:51Z</time></trkpt><trkpt lat="51.7916803714" lon="-2.4219235126"><ele>9.27</ele><time>2017-04-05T09:25:18Z</time></trkpt><trkpt lat="51.7915964685" lon="-2.4217191618"><ele>8.79</ele><time>2017-04-05T09:25:37Z</time></trkpt><trkpt lat="51.7915009987" lon="-2.4214942753"><ele>8.79</ele><time>2017-04-05T09:25:55Z</time></trkpt><trkpt lat="51.7914157547" lon="-2.4212686345"><ele>9.27</ele><time>2017-04-05T09:26:13Z</time></trkpt><trkpt lat="51.7913310975" lon="-2.4210831430"><ele>8.31</ele><time>2017-04-05T09:26:29Z</time></trkpt><trkpt lat="51.7912611086" lon="-2.4209235515"><ele>8.31</ele><time>2017-04-05T09:26:45Z</time></trkpt><trkpt lat="51.7912269104" lon="-2.4208168499"><ele>9.27</ele><time>2017-04-05T09:26:55Z</time></trkpt><trkpt lat="51.7910859268" lon="-2.4205377325"><ele>9.27</ele><time>2017-04-05T09:27:16Z</time></trkpt><trkpt lat="51.7909814883" lon="-2.4203470442"><ele>9.27</ele><time>2017-04-05T09:27:33Z</time></trkpt><trkpt lat="51.7909158580" lon="-2.4201890454"><ele>8.79</ele><time>2017-04-05T09:27:47Z</time></trkpt><trkpt lat="51.7908053845" lon="-2.4199486524"><ele>9.27</ele><time>2017-04-05T09:28:04Z</time></trkpt><trkpt lat="51.7906970065" lon="-2.4197539408"><ele>8.79</ele><time>2017-04-05T09:28:21Z</time></trkpt><trkpt lat="51.7906200606" lon="-2.4195630010"><ele>8.79</ele><time>2017-04-05T09:28:38Z</time></trkpt><trkpt lat="51.7905605491" lon="-2.4194324110"><ele>8.79</ele><time>2017-04-05T09:28:51Z</time></trkpt><trkpt lat="51.7905416898" lon="-2.4194143899"><ele>8.79</ele><time>2017-04-05T09:28:53Z</time></trkpt><trkpt lat="51.7905279435" lon="-2.4193913396"><ele>8.79</ele><time>2017-04-05T09:28:55Z</time></trkpt><trkpt lat="51.7904507462" lon="-2.4191854801"><ele>9.27</ele><time>2017-04-05T09:29:12Z</time></trkpt><trkpt lat="51.7904156260" lon="-2.4191479292"><ele>9.27</ele><time>2017-04-05T09:29:17Z</time></trkpt><trkpt lat="51.7902660090" lon="-2.4190160818"><ele>8.79</ele><time>2017-04-05T09:29:33Z</time></trkpt><trkpt lat="51.7901361734" lon="-2.4188696500"><ele>9.27</ele><time>2017-04-05T09:29:49Z</time></trkpt><trkpt lat="51.7900248617" lon="-2.4187558237"><ele>9.27</ele><time>2017-04-05T09:30:04Z</time></trkpt><trkpt lat="51.7899036594" lon="-2.4186510500"><ele>8.79</ele><time>2017-04-05T09:30:21Z</time></trkpt><trkpt lat="51.7897854745" lon="-2.4185139220"><ele>9.27</ele><time>2017-04-05T09:30:38Z</time></trkpt><trkpt lat="51.7897184193" lon="-2.4184306059"><ele>8.79</ele><time>2017-04-05T09:30:51Z</time></trkpt><trkpt lat="51.7897004820" lon="-2.4184065498"><ele>9.27</ele><time>2017-04-05T09:30:54Z</time></trkpt><trkpt lat="51.7895714007" lon="-2.4182567652"><ele>8.79</ele><time>2017-04-05T09:31:10Z</time></trkpt><trkpt lat="51.7894729972" lon="-2.4181518238"><ele>9.27</ele><time>2017-04-05T09:31:24Z</time></trkpt><trkpt lat="51.7893732525" lon="-2.4180328846"><ele>10.23</ele><time>2017-04-05T09:31:39Z</time></trkpt><trkpt lat="51.7892469373" lon="-2.4179362413"><ele>9.27</ele><time>2017-04-05T09:31:57Z</time></trkpt><trkpt lat="51.7892295867" lon="-2.4179257639"><ele>9.27</ele><time>2017-04-05T09:32:20Z</time></trkpt><trkpt lat="51.7892197799" lon="-2.4179127719"><ele>9.75</ele><time>2017-04-05T09:32:35Z</time></trkpt><trkpt lat="51.7892113142" lon="-2.4179073237"><ele>9.27</ele><time>2017-04-05T09:32:58Z</time></trkpt><trkpt lat="51.7891964782" lon="-2.4178915657"><ele>9.27</ele><time>2017-04-05T09:33:15Z</time></trkpt><trkpt lat="51.7891813908" lon="-2.4178567808"><ele>9.27</ele><time>2017-04-05T09:33:31Z</time></trkpt><trkpt lat="51.7891631182" lon="-2.4177355785"><ele>9.75</ele><time>2017-04-05T09:33:43Z</time></trkpt><trkpt lat="51.7890896928" lon="-2.4176059943"><ele>9.75</ele><time>2017-04-05T09:33:53Z</time></trkpt><trkpt lat="51.7890436761" lon="-2.4176329840"><ele>9.75</ele><time>2017-04-05T09:33:58Z</time></trkpt><trkpt lat="51.7889052071" lon="-2.4177904800"><ele>9.75</ele><time>2017-04-05T09:34:15Z</time></trkpt><trkpt lat="51.7888844199" lon="-2.4178024661"><ele>9.75</ele><time>2017-04-05T09:34:18Z</time></trkpt><trkpt lat="51.7887467891" lon="-2.4178556073"><ele>10.23</ele><time>2017-04-05T09:34:33Z</time></trkpt><trkpt lat="51.7886900436" lon="-2.4178695213"><ele>9.75</ele><time>2017-04-05T09:34:48Z</time></trkpt><trkpt lat="51.7885936517" lon="-2.4178452976"><ele>9.27</ele><time>2017-04-05T09:35:02Z</time></trkpt><trkpt lat="51.7885560170" lon="-2.4178193137"><ele>9.27</ele><time>2017-04-05T09:35:19Z</time></trkpt><trkpt lat="51.7885576095" lon="-2.4178223312"><ele>9.75</ele><time>2017-04-05T09:35:52Z</time></trkpt><trkpt lat="51.7885457072" lon="-2.4178234208"><ele>9.27</ele><time>2017-04-05T09:36:30Z</time></trkpt><trkpt lat="51.7883750517" lon="-2.4177554436"><ele>9.27</ele><time>2017-04-05T09:36:47Z</time></trkpt><trkpt lat="51.7882044800" lon="-2.4177091755"><ele>9.27</ele><time>2017-04-05T09:37:03Z</time></trkpt><trkpt lat="51.7880397756" lon="-2.4175712094"><ele>9.75</ele><time>2017-04-05T09:37:19Z</time></trkpt><trkpt lat="51.7878432199" lon="-2.4174465705"><ele>9.27</ele><time>2017-04-05T09:37:37Z</time></trkpt><trkpt lat="51.7876517773" lon="-2.4172934331"><ele>9.75</ele><time>2017-04-05T09:37:54Z</time></trkpt><trkpt lat="51.7874673754" lon="-2.4171604123"><ele>9.27</ele><time>2017-04-05T09:38:12Z</time></trkpt><trkpt lat="51.7874106299" lon="-2.4171334226"><ele>9.75</ele><time>2017-04-05T09:38:27Z</time></trkpt><trkpt lat="51.7873267271" lon="-2.4171390384"><ele>9.27</ele><time>2017-04-05T09:38:41Z</time></trkpt><trkpt lat="51.7871880066" lon="-2.4172419682"><ele>9.27</ele><time>2017-04-05T09:38:57Z</time></trkpt><trkpt lat="51.7871554848" lon="-2.4172774237"><ele>9.27</ele><time>2017-04-05T09:39:01Z</time></trkpt><trkpt lat="51.7870183568" lon="-2.4174042419"><ele>9.75</ele><time>2017-04-05T09:39:17Z</time></trkpt><trkpt lat="51.7868797202" lon="-2.4175718799"><ele>10.71</ele><time>2017-04-05T09:39:35Z</time></trkpt><trkpt lat="51.7867466994" lon="-2.4177221674"><ele>11.19</ele><time>2017-04-05T09:39:53Z</time></trkpt><trkpt lat="51.7866728548" lon="-2.4178146198"><ele>12.15</ele><time>2017-04-05T09:40:07Z</time></trkpt><trkpt lat="51.7867016047" lon="-2.4178872909"><ele>11.67</ele><time>2017-04-05T09:40:20Z</time></trkpt><trkpt lat="51.7866454460" lon="-2.4178693537"><ele>12.63</ele><time>2017-04-05T09:40:29Z</time></trkpt><trkpt lat="51.7865279317" lon="-2.4179869518"><ele>12.63</ele><time>2017-04-05T09:40:46Z</time></trkpt><trkpt lat="51.7864726949" lon="-2.4181150272"><ele>13.60</ele><time>2017-04-05T09:41:02Z</time></trkpt><trkpt lat="51.7864667438" lon="-2.4181290250"><ele>14.08</ele><time>2017-04-05T09:41:21Z</time></trkpt><trkpt lat="51.7864938173" lon="-2.4181586970"><ele>13.60</ele><time>2017-04-05T09:41:40Z</time></trkpt><trkpt lat="51.7865383253" lon="-2.4182190467"><ele>14.08</ele><time>2017-04-05T09:41:56Z</time></trkpt><trkpt lat="51.7865434382" lon="-2.4183386564"><ele>14.08</ele><time>2017-04-05T09:42:11Z</time></trkpt><trkpt lat="51.7865565978" lon="-2.4185355473"><ele>14.08</ele><time>2017-04-05T09:42:31Z</time></trkpt><trkpt lat="51.7865500599" lon="-2.4187910277"><ele>14.56</ele><time>2017-04-05T09:42:47Z</time></trkpt><trkpt lat="51.7865528259" lon="-2.4188225437"><ele>14.08</ele><time>2017-04-05T09:42:49Z</time></trkpt><trkpt lat="51.7865526583" lon="-2.4190283194"><ele>14.56</ele><time>2017-04-05T09:43:07Z</time></trkpt><trkpt lat="51.7865585256" lon="-2.4192433152"><ele>15.04</ele><time>2017-04-05T09:43:21Z</time></trkpt><trkpt lat="51.7865567654" lon="-2.4192795251"><ele>14.56</ele><time>2017-04-05T09:43:23Z</time></trkpt><trkpt lat="51.7865522392" lon="-2.4193589017"><ele>15.04</ele><time>2017-04-05T09:43:28Z</time></trkpt><trkpt lat="51.7865470424" lon="-2.4194375239"><ele>15.52</ele><time>2017-04-05T09:43:33Z</time></trkpt><trkpt lat="51.7865528259" lon="-2.4197037332"><ele>15.04</ele><time>2017-04-05T09:43:50Z</time></trkpt><trkpt lat="51.7865343019" lon="-2.4199418630"><ele>14.08</ele><time>2017-04-05T09:44:08Z</time></trkpt><trkpt lat="51.7865298595" lon="-2.4200409371"><ele>14.08</ele><time>2017-04-05T09:44:23Z</time></trkpt><trkpt lat="51.7865292728" lon="-2.4202712718"><ele>13.12</ele><time>2017-04-05T09:44:37Z</time></trkpt><trkpt lat="51.7864833400" lon="-2.4206034467"><ele>11.19</ele><time>2017-04-05T09:44:58Z</time></trkpt><trkpt lat="51.7864558473" lon="-2.4208257347"><ele>11.67</ele><time>2017-04-05T09:45:12Z</time></trkpt><trkpt lat="51.7864216492" lon="-2.4209845718"><ele>12.15</ele><time>2017-04-05T09:45:30Z</time></trkpt><trkpt lat="51.7864152789" lon="-2.4209973123"><ele>11.67</ele><time>2017-04-05T09:45:52Z</time></trkpt><trkpt lat="51.7864155304" lon="-2.4210112263"><ele>12.15</ele><time>2017-04-05T09:46:18Z</time></trkpt><trkpt lat="51.7864317913" lon="-2.4211466778"><ele>12.63</ele><time>2017-04-05T09:46:38Z</time></trkpt><trkpt lat="51.7864323780" lon="-2.4213352706"><ele>11.19</ele><time>2017-04-05T09:46:54Z</time></trkpt><trkpt lat="51.7864417657" lon="-2.4215187505"><ele>11.19</ele><time>2017-04-05T09:47:11Z</time></trkpt><trkpt lat="51.7864519078" lon="-2.4215348437"><ele>11.67</ele><time>2017-04-05T09:47:25Z</time></trkpt><trkpt lat="51.7864514887" lon="-2.4216371868"><ele>12.63</ele><time>2017-04-05T09:47:37Z</time></trkpt><trkpt lat="51.7864549253" lon="-2.4216891546"><ele>12.63</ele><time>2017-04-05T09:47:41Z</time></trkpt><trkpt lat="51.7864678334" lon="-2.4219014682"><ele>11.67</ele><time>2017-04-05T09:47:58Z</time></trkpt><trkpt lat="51.7864811607" lon="-2.4221095908"><ele>11.67</ele><time>2017-04-05T09:48:13Z</time></trkpt><trkpt lat="51.7864962481" lon="-2.4223164562"><ele>11.67</ele><time>2017-04-05T09:48:27Z</time></trkpt><trkpt lat="51.7865017802" lon="-2.4225639738"><ele>12.63</ele><time>2017-04-05T09:48:43Z</time></trkpt><trkpt lat="51.7865061387" lon="-2.4228426721"><ele>11.19</ele><time>2017-04-05T09:49:00Z</time></trkpt><trkpt lat="51.7865144368" lon="-2.4230705760"><ele>12.15</ele><time>2017-04-05T09:49:15Z</time></trkpt><trkpt lat="51.7865254171" lon="-2.4231191911"><ele>12.63</ele><time>2017-04-05T09:49:23Z</time></trkpt><trkpt lat="51.7865334637" lon="-2.4232454225"><ele>12.63</ele><time>2017-04-05T09:49:33Z</time></trkpt><trkpt lat="51.7865363136" lon="-2.4235563073"><ele>11.67</ele><time>2017-04-05T09:49:52Z</time></trkpt><trkpt lat="51.7865509819" lon="-2.4238152243"><ele>12.15</ele><time>2017-04-05T09:50:09Z</time></trkpt><trkpt lat="51.7865550891" lon="-2.4240899831"><ele>12.63</ele><time>2017-04-05T09:50:29Z</time></trkpt><trkpt lat="51.7865535803" lon="-2.4243238382"><ele>13.12</ele><time>2017-04-05T09:50:44Z</time></trkpt><trkpt lat="51.7865685001" lon="-2.4245540053"><ele>12.63</ele><time>2017-04-05T09:50:59Z</time></trkpt><trkpt lat="51.7865651473" lon="-2.4248091504"><ele>12.15</ele><time>2017-04-05T09:51:16Z</time></trkpt><trkpt lat="51.7865698412" lon="-2.4249415845"><ele>12.63</ele><time>2017-04-05T09:51:30Z</time></trkpt><trkpt lat="51.7865713499" lon="-2.4249549117"><ele>12.63</ele><time>2017-04-05T09:51:37Z</time></trkpt><trkpt lat="51.7865768820" lon="-2.4250895251"><ele>11.19</ele><time>2017-04-05T09:51:47Z</time></trkpt><trkpt lat="51.7865700927" lon="-2.4251911975"><ele>11.67</ele><time>2017-04-05T09:52:07Z</time></trkpt><trkpt lat="51.7865857668" lon="-2.4254292436"><ele>13.12</ele><time>2017-04-05T09:52:23Z</time></trkpt><trkpt lat="51.7865857668" lon="-2.4255357776"><ele>12.63</ele><time>2017-04-05T09:52:29Z</time></trkpt><trkpt lat="51.7866006866" lon="-2.4258692935"><ele>12.63</ele><time>2017-04-05T09:52:47Z</time></trkpt><trkpt lat="51.7866146006" lon="-2.4261212535"><ele>12.15</ele><time>2017-04-05T09:53:03Z</time></trkpt><trkpt lat="51.7866218090" lon="-2.4262139574"><ele>11.67</ele><time>2017-04-05T09:53:08Z</time></trkpt><trkpt lat="51.7866497207" lon="-2.4265329726"><ele>11.67</ele><time>2017-04-05T09:53:26Z</time></trkpt><trkpt lat="51.7866723519" lon="-2.4268270936"><ele>11.67</ele><time>2017-04-05T09:53:42Z</time></trkpt><trkpt lat="51.7866680771" lon="-2.4269783031"><ele>12.63</ele><time>2017-04-05T09:53:59Z</time></trkpt><trkpt lat="51.7866771296" lon="-2.4269834999"><ele>11.67</ele><time>2017-04-05T09:54:19Z</time></trkpt><trkpt lat="51.7866857629" lon="-2.4270779639"><ele>11.19</ele><time>2017-04-05T09:54:37Z</time></trkpt><trkpt lat="51.7866911273" lon="-2.4271288421"><ele>12.15</ele><time>2017-04-05T09:55:01Z</time></trkpt><trkpt lat="51.7866743635" lon="-2.4273711629"><ele>12.15</ele><time>2017-04-05T09:55:18Z</time></trkpt><trkpt lat="51.7866746150" lon="-2.4273756053"><ele>11.67</ele><time>2017-04-05T09:55:47Z</time></trkpt><trkpt lat="51.7866741121" lon="-2.4273839872"><ele>11.67</ele><time>2017-04-05T09:55:50Z</time></trkpt><trkpt lat="51.7866772972" lon="-2.4274414033"><ele>12.15</ele><time>2017-04-05T09:55:54Z</time></trkpt><trkpt lat="51.7866762076" lon="-2.4276559800"><ele>12.15</ele><time>2017-04-05T09:56:07Z</time></trkpt><trkpt lat="51.7866827454" lon="-2.4277662020"><ele>11.67</ele><time>2017-04-05T09:56:22Z</time></trkpt><trkpt lat="51.7866719328" lon="-2.4278019927"><ele>11.67</ele><time>2017-04-05T09:56:32Z</time></trkpt><trkpt lat="51.7866558395" lon="-2.4280312378"><ele>11.67</ele><time>2017-04-05T09:56:47Z</time></trkpt><trkpt lat="51.7866411712" lon="-2.4281630851"><ele>12.15</ele><time>2017-04-05T09:56:54Z</time></trkpt><trkpt lat="51.7866236530" lon="-2.4283318967"><ele>11.67</ele><time>2017-04-05T09:57:09Z</time></trkpt><trkpt lat="51.7866168637" lon="-2.4284708686"><ele>11.67</ele><time>2017-04-05T09:57:22Z</time></trkpt><trkpt lat="51.7866165284" lon="-2.4285016302"><ele>11.19</ele><time>2017-04-05T09:57:39Z</time></trkpt><trkpt lat="51.7866122536" lon="-2.4287016224"><ele>12.15</ele><time>2017-04-05T09:57:54Z</time></trkpt><trkpt lat="51.7866311967" lon="-2.4287935719"><ele>11.19</ele><time>2017-04-05T09:58:11Z</time></trkpt><trkpt lat="51.7866235692" lon="-2.4288194720"><ele>11.19</ele><time>2017-04-05T09:58:27Z</time></trkpt><trkpt lat="51.7866064701" lon="-2.4288465455"><ele>10.71</ele><time>2017-04-05T09:58:48Z</time></trkpt><trkpt lat="51.7866481282" lon="-2.4288364872"><ele>10.71</ele><time>2017-04-05T09:59:05Z</time></trkpt><trkpt lat="51.7866960727" lon="-2.4288179632"><ele>8.79</ele><time>2017-04-05T09:59:20Z</time></trkpt><trkpt lat="51.7867020238" lon="-2.4288236629"><ele>8.79</ele><time>2017-04-05T09:59:36Z</time></trkpt><trkpt lat="51.7867021915" lon="-2.4288332183"><ele>9.27</ele><time>2017-04-05T09:59:55Z</time></trkpt><trkpt lat="51.7867004313" lon="-2.4288395047"><ele>8.79</ele><time>2017-04-05T10:00:12Z</time></trkpt><trkpt lat="51.7866990902" lon="-2.4288359843"><ele>9.27</ele><time>2017-04-05T10:00:38Z</time></trkpt><trkpt lat="51.7867011018" lon="-2.4288403429"><ele>9.27</ele><time>2017-04-05T10:01:02Z</time></trkpt><trkpt lat="51.7867029458" lon="-2.4288292788"><ele>9.27</ele><time>2017-04-05T10:01:23Z</time></trkpt><trkpt lat="51.7866996769" lon="-2.4288281053"><ele>8.79</ele><time>2017-04-05T10:01:52Z</time></trkpt><trkpt lat="51.7867024429" lon="-2.4288287759"><ele>9.27</ele><time>2017-04-05T10:02:17Z</time></trkpt><trkpt lat="51.7866988387" lon="-2.4288212322"><ele>8.79</ele><time>2017-04-05T10:02:44Z</time></trkpt><trkpt lat="51.7867013533" lon="-2.4288274348"><ele>8.79</ele><time>2017-04-05T10:03:09Z</time></trkpt><trkpt lat="51.7867022753" lon="-2.4288289435"><ele>9.27</ele><time>2017-04-05T10:03:33Z</time></trkpt><trkpt lat="51.7866995092" lon="-2.4288185500"><ele>9.27</ele><time>2017-04-05T10:03:54Z</time></trkpt><trkpt lat="51.7866954859" lon="-2.4288177118"><ele>9.27</ele><time>2017-04-05T10:04:26Z</time></trkpt><trkpt lat="51.7866973300" lon="-2.4288160354"><ele>9.27</ele><time>2017-04-05T10:04:51Z</time></trkpt><trkpt lat="51.7867003474" lon="-2.4288167059"><ele>9.27</ele><time>2017-04-05T10:05:18Z</time></trkpt><trkpt lat="51.7866979167" lon="-2.4288196396"><ele>9.75</ele><time>2017-04-05T10:05:45Z</time></trkpt><trkpt lat="51.7866940610" lon="-2.4288222380"><ele>9.75</ele><time>2017-04-05T10:06:14Z</time></trkpt><trkpt lat="51.7866933905" lon="-2.4288234953"><ele>9.75</ele><time>2017-04-05T10:06:45Z</time></trkpt><trkpt lat="51.7866930552" lon="-2.4288275186"><ele>9.75</ele><time>2017-04-05T10:07:16Z</time></trkpt><trkpt lat="51.7866931390" lon="-2.4288252555"><ele>9.75</ele><time>2017-04-05T10:07:50Z</time></trkpt><trkpt lat="51.7866957374" lon="-2.4288244173"><ele>9.27</ele><time>2017-04-05T10:08:31Z</time></trkpt><trkpt lat="51.7866954021" lon="-2.4288205616"><ele>9.75</ele><time>2017-04-05T10:08:59Z</time></trkpt><trkpt lat="51.7866959050" lon="-2.4288204778"><ele>9.27</ele><time>2017-04-05T10:09:33Z</time></trkpt><trkpt lat="51.7866959050" lon="-2.4288203940"><ele>9.27</ele><time>2017-04-05T10:10:00Z</time></trkpt><trkpt lat="51.7866948154" lon="-2.4288219027"><ele>9.75</ele><time>2017-04-05T10:10:39Z</time></trkpt><trkpt lat="51.7866838351" lon="-2.4288228247"><ele>9.27</ele><time>2017-04-05T10:10:57Z</time></trkpt><trkpt lat="51.7866844218" lon="-2.4288186338"><ele>9.75</ele><time>2017-04-05T10:11:23Z</time></trkpt><trkpt lat="51.7866845056" lon="-2.4288124312"><ele>9.75</ele><time>2017-04-05T10:11:54Z</time></trkpt><trkpt lat="51.7866755370" lon="-2.4288934842"><ele>10.23</ele><time>2017-04-05T10:12:14Z</time></trkpt><trkpt lat="51.7866467871" lon="-2.4289451167"><ele>11.67</ele><time>2017-04-05T10:12:31Z</time></trkpt><trkpt lat="51.7866596114" lon="-2.4291783851"><ele>11.19</ele><time>2017-04-05T10:12:46Z</time></trkpt><trkpt lat="51.7866524868" lon="-2.4292254075"><ele>11.67</ele><time>2017-04-05T10:12:49Z</time></trkpt><trkpt lat="51.7866399977" lon="-2.4293243978"><ele>11.19</ele><time>2017-04-05T10:12:57Z</time></trkpt><trkpt lat="51.7867350485" lon="-2.4295483623"><ele>11.19</ele><time>2017-04-05T10:13:13Z</time></trkpt><trkpt lat="51.7867767904" lon="-2.4297987297"><ele>11.19</ele><time>2017-04-05T10:13:28Z</time></trkpt><trkpt lat="51.7868222203" lon="-2.4300946109"><ele>11.19</ele><time>2017-04-05T10:13:45Z</time></trkpt><trkpt lat="51.7868781276" lon="-2.4304630794"><ele>12.15</ele><time>2017-04-05T10:14:06Z</time></trkpt><trkpt lat="51.7869326100" lon="-2.4307857826"><ele>11.67</ele><time>2017-04-05T10:14:24Z</time></trkpt><trkpt lat="51.7870133277" lon="-2.4311517365"><ele>11.19</ele><time>2017-04-05T10:14:44Z</time></trkpt><trkpt lat="51.7870429158" lon="-2.4312729388"><ele>10.23</ele><time>2017-04-05T10:14:59Z</time></trkpt><trkpt lat="51.7870243918" lon="-2.4314007629"><ele>11.19</ele><time>2017-04-05T10:15:15Z</time></trkpt><trkpt lat="51.7870250624" lon="-2.4314089771"><ele>11.19</ele><time>2017-04-05T10:15:16Z</time></trkpt><trkpt lat="51.7870296724" lon="-2.4314301834"><ele>10.23</ele><time>2017-04-05T10:15:18Z</time></trkpt><trkpt lat="51.7870434187" lon="-2.4315056205"><ele>11.19</ele><time>2017-04-05T10:15:22Z</time></trkpt><trkpt lat="51.7871092167" lon="-2.4318216182"><ele>10.23</ele><time>2017-04-05T10:15:40Z</time></trkpt><trkpt lat="51.7871250585" lon="-2.4319061916"><ele>11.19</ele><time>2017-04-05T10:15:49Z</time></trkpt><trkpt lat="51.7871766072" lon="-2.4322112929"><ele>10.23</ele><time>2017-04-05T10:16:08Z</time></trkpt><trkpt lat="51.7872209474" lon="-2.4325197469"><ele>11.19</ele><time>2017-04-05T10:16:25Z</time></trkpt><trkpt lat="51.7872937024" lon="-2.4328471441"><ele>10.71</ele><time>2017-04-05T10:16:44Z</time></trkpt><trkpt lat="51.7873389646" lon="-2.4330822565"><ele>10.71</ele><time>2017-04-05T10:17:01Z</time></trkpt><trkpt lat="51.7873739172" lon="-2.4332897086"><ele>10.23</ele><time>2017-04-05T10:17:16Z</time></trkpt><trkpt lat="51.7873854004" lon="-2.4333759584"><ele>10.71</ele><time>2017-04-05T10:17:23Z</time></trkpt><trkpt lat="51.7874062713" lon="-2.4334912095"><ele>11.19</ele><time>2017-04-05T10:17:32Z</time></trkpt><trkpt lat="51.7874407209" lon="-2.4336809758"><ele>10.23</ele><time>2017-04-05T10:17:48Z</time></trkpt><trkpt lat="51.7874751706" lon="-2.4339265656"><ele>10.71</ele><time>2017-04-05T10:18:05Z</time></trkpt><trkpt lat="51.7875093687" lon="-2.4341227859"><ele>10.23</ele><time>2017-04-05T10:18:20Z</time></trkpt><trkpt lat="51.7875429802" lon="-2.4342750013"><ele>10.71</ele><time>2017-04-05T10:18:34Z</time></trkpt><trkpt lat="51.7875741608" lon="-2.4345081020"><ele>10.71</ele><time>2017-04-05T10:18:51Z</time></trkpt><trkpt lat="51.7876118794" lon="-2.4347209185"><ele>11.19</ele><time>2017-04-05T10:19:06Z</time></trkpt><trkpt lat="51.7876525316" lon="-2.4349220842"><ele>10.71</ele><time>2017-04-05T10:19:22Z</time></trkpt><trkpt lat="51.7876879033" lon="-2.4351254292"><ele>10.71</ele><time>2017-04-05T10:19:39Z</time></trkpt><trkpt lat="51.7877178267" lon="-2.4353270978"><ele>10.71</ele><time>2017-04-05T10:19:53Z</time></trkpt><trkpt lat="51.7877349257" lon="-2.4353991821"><ele>10.23</ele><time>2017-04-05T10:19:59Z</time></trkpt><trkpt lat="51.7877832893" lon="-2.4355938938"><ele>11.19</ele><time>2017-04-05T10:20:16Z</time></trkpt><trkpt lat="51.7878041603" lon="-2.4358043633"><ele>10.23</ele><time>2017-04-05T10:20:32Z</time></trkpt><trkpt lat="51.7878611572" lon="-2.4360550661"><ele>10.23</ele><time>2017-04-05T10:20:51Z</time></trkpt><trkpt lat="51.7878655158" lon="-2.4360677227"><ele>11.67</ele><time>2017-04-05T10:20:52Z</time></trkpt><trkpt lat="51.7878948525" lon="-2.4362712353"><ele>11.67</ele><time>2017-04-05T10:21:08Z</time></trkpt><trkpt lat="51.7879437190" lon="-2.4364151526"><ele>11.19</ele><time>2017-04-05T10:21:21Z</time></trkpt><trkpt lat="51.7879864667" lon="-2.4366335012"><ele>11.19</ele><time>2017-04-05T10:21:36Z</time></trkpt><trkpt lat="51.7880300526" lon="-2.4368051626"><ele>10.71</ele><time>2017-04-05T10:21:51Z</time></trkpt><trkpt lat="51.7880769912" lon="-2.4370029755"><ele>11.19</ele><time>2017-04-05T10:22:06Z</time></trkpt><trkpt lat="51.7881139554" lon="-2.4371841084"><ele>11.19</ele><time>2017-04-05T10:22:20Z</time></trkpt><trkpt lat="51.7881681025" lon="-2.4373981822"><ele>11.67</ele><time>2017-04-05T10:22:37Z</time></trkpt><trkpt lat="51.7881785799" lon="-2.4374639802"><ele>11.19</ele><time>2017-04-05T10:22:42Z</time></trkpt><trkpt lat="51.7882001214" lon="-2.4375383276"><ele>11.19</ele><time>2017-04-05T10:22:47Z</time></trkpt><trkpt lat="51.7882603034" lon="-2.4377689138"><ele>11.19</ele><time>2017-04-05T10:23:05Z</time></trkpt><trkpt lat="51.7883030511" lon="-2.4379334506"><ele>10.71</ele><time>2017-04-05T10:23:19Z</time></trkpt><trkpt lat="51.7883582879" lon="-2.4381900206"><ele>10.71</ele><time>2017-04-05T10:23:37Z</time></trkpt><trkpt lat="51.7883737106" lon="-2.4382558186"><ele>11.19</ele><time>2017-04-05T10:23:42Z</time></trkpt><trkpt lat="51.7884414364" lon="-2.4384774361"><ele>11.19</ele><time>2017-04-05T10:23:59Z</time></trkpt><trkpt lat="51.7884904705" lon="-2.4386871513"><ele>11.19</ele><time>2017-04-05T10:24:16Z</time></trkpt><trkpt lat="51.7885353137" lon="-2.4388535321"><ele>11.67</ele><time>2017-04-05T10:24:32Z</time></trkpt><trkpt lat="51.7885915563" lon="-2.4390445556"><ele>11.67</ele><time>2017-04-05T10:24:48Z</time></trkpt><trkpt lat="51.7886301968" lon="-2.4391769059"><ele>11.67</ele><time>2017-04-05T10:25:04Z</time></trkpt><trkpt lat="51.7886881158" lon="-2.4393414427"><ele>12.15</ele><time>2017-04-05T10:25:16Z</time></trkpt><trkpt lat="51.7887451127" lon="-2.4395752139"><ele>11.19</ele><time>2017-04-05T10:25:32Z</time></trkpt><trkpt lat="51.7888024449" lon="-2.4397407565"><ele>11.19</ele><time>2017-04-05T10:25:48Z</time></trkpt><trkpt lat="51.7888874374" lon="-2.4399506394"><ele>11.19</ele><time>2017-04-05T10:26:06Z</time></trkpt><trkpt lat="51.7889701668" lon="-2.4401487038"><ele>11.67</ele><time>2017-04-05T10:26:22Z</time></trkpt><trkpt lat="51.7890384793" lon="-2.4403712433"><ele>12.15</ele><time>2017-04-05T10:26:38Z</time></trkpt><trkpt lat="51.7890579253" lon="-2.4404184334"><ele>12.15</ele><time>2017-04-05T10:26:42Z</time></trkpt><trkpt lat="51.7891358770" lon="-2.4405960459"><ele>12.15</ele><time>2017-04-05T10:26:58Z</time></trkpt><trkpt lat="51.7891958077" lon="-2.4407893326"><ele>11.19</ele><time>2017-04-05T10:27:14Z</time></trkpt><trkpt lat="51.7892729212" lon="-2.4410251994"><ele>11.19</ele><time>2017-04-05T10:27:32Z</time></trkpt><trkpt lat="51.7893781979" lon="-2.4412077572"><ele>12.15</ele><time>2017-04-05T10:27:49Z</time></trkpt><trkpt lat="51.7894461751" lon="-2.4414022174"><ele>11.19</ele><time>2017-04-05T10:28:04Z</time></trkpt><trkpt lat="51.7895057704" lon="-2.4415561091"><ele>11.19</ele><time>2017-04-05T10:28:16Z</time></trkpt><trkpt lat="51.7895937804" lon="-2.4417431094"><ele>11.19</ele><time>2017-04-05T10:28:32Z</time></trkpt><trkpt lat="51.7896886636" lon="-2.4419287685"><ele>10.71</ele><time>2017-04-05T10:28:49Z</time></trkpt><trkpt lat="51.7897870671" lon="-2.4421113264"><ele>10.23</ele><time>2017-04-05T10:29:05Z</time></trkpt><trkpt lat="51.7899040785" lon="-2.4423353747"><ele>11.67</ele><time>2017-04-05T10:29:26Z</time></trkpt><trkpt lat="51.7899648473" lon="-2.4424492009"><ele>11.67</ele><time>2017-04-05T10:29:45Z</time></trkpt><trkpt lat="51.7899845447" lon="-2.4424960557"><ele>11.67</ele><time>2017-04-05T10:30:06Z</time></trkpt><trkpt lat="51.7900744826" lon="-2.4426626042"><ele>11.19</ele><time>2017-04-05T10:30:22Z</time></trkpt><trkpt lat="51.7901790887" lon="-2.4428158253"><ele>11.67</ele><time>2017-04-05T10:30:38Z</time></trkpt><trkpt lat="51.7902592197" lon="-2.4429589044"><ele>11.19</ele><time>2017-04-05T10:30:53Z</time></trkpt><trkpt lat="51.7903582100" lon="-2.4431234412"><ele>11.19</ele><time>2017-04-05T10:31:08Z</time></trkpt><trkpt lat="51.7904775683" lon="-2.4433186557"><ele>10.71</ele><time>2017-04-05T10:31:27Z</time></trkpt><trkpt lat="51.7905470543" lon="-2.4434300512"><ele>12.63</ele><time>2017-04-05T10:31:42Z</time></trkpt><trkpt lat="51.7906160373" lon="-2.4435293768"><ele>11.67</ele><time>2017-04-05T10:31:56Z</time></trkpt><trkpt lat="51.7906929832" lon="-2.4436268583"><ele>12.15</ele><time>2017-04-05T10:32:15Z</time></trkpt><trkpt lat="51.7908163648" lon="-2.4437848572"><ele>10.23</ele><time>2017-04-05T10:32:36Z</time></trkpt><trkpt lat="51.7909444403" lon="-2.4439483881"><ele>11.19</ele><time>2017-04-05T10:32:55Z</time></trkpt><trkpt lat="51.7910725996" lon="-2.4441292696"><ele>10.71</ele><time>2017-04-05T10:33:15Z</time></trkpt><trkpt lat="51.7912132479" lon="-2.4443025235"><ele>11.67</ele><time>2017-04-05T10:33:36Z</time></trkpt><trkpt lat="51.7913597636" lon="-2.4444784597"><ele>10.71</ele><time>2017-04-05T10:33:58Z</time></trkpt><trkpt lat="51.7915408965" lon="-2.4446329381"><ele>10.71</ele><time>2017-04-05T10:34:22Z</time></trkpt><trkpt lat="51.7916931957" lon="-2.4447501171"><ele>10.71</ele><time>2017-04-05T10:34:43Z</time></trkpt><trkpt lat="51.7918464169" lon="-2.4448806234"><ele>11.19</ele><time>2017-04-05T10:35:02Z</time></trkpt><trkpt lat="51.7920492589" lon="-2.4450210202"><ele>11.67</ele><time>2017-04-05T10:35:26Z</time></trkpt><trkpt lat="51.7921978701" lon="-2.4451065995"><ele>11.67</ele><time>2017-04-05T10:35:45Z</time></trkpt><trkpt lat="51.7923777457" lon="-2.4452092778"><ele>10.71</ele><time>2017-04-05T10:36:08Z</time></trkpt><trkpt lat="51.7925229203" lon="-2.4452748243"><ele>10.71</ele><time>2017-04-05T10:36:26Z</time></trkpt><trkpt lat="51.7927128542" lon="-2.4453533627"><ele>11.67</ele><time>2017-04-05T10:36:48Z</time></trkpt><trkpt lat="51.7928282730" lon="-2.4454174004"><ele>11.19</ele><time>2017-04-05T10:37:03Z</time></trkpt><trkpt lat="51.7929942347" lon="-2.4454825278"><ele>11.19</ele><time>2017-04-05T10:37:20Z</time></trkpt><trkpt lat="51.7931451928" lon="-2.4455441348"><ele>11.67</ele><time>2017-04-05T10:37:37Z</time></trkpt><trkpt lat="51.7933048680" lon="-2.4455981981"><ele>11.67</ele><time>2017-04-05T10:37:54Z</time></trkpt><trkpt lat="51.7934378888" lon="-2.4456525128"><ele>11.67</ele><time>2017-04-05T10:38:08Z</time></trkpt><trkpt lat="51.7936245538" lon="-2.4457394332"><ele>11.19</ele><time>2017-04-05T10:38:26Z</time></trkpt><trkpt lat="51.7937870789" lon="-2.4457963463"><ele>11.67</ele><time>2017-04-05T10:38:44Z</time></trkpt><trkpt lat="51.7939458322" lon="-2.4458330590"><ele>11.67</ele><time>2017-04-05T10:39:01Z</time></trkpt><trkpt lat="51.7941347603" lon="-2.4459006172"><ele>11.19</ele><time>2017-04-05T10:39:19Z</time></trkpt><trkpt lat="51.7942507658" lon="-2.4459222425"><ele>11.19</ele><time>2017-04-05T10:39:35Z</time></trkpt><trkpt lat="51.7944168951" lon="-2.4459260143"><ele>11.19</ele><time>2017-04-05T10:39:52Z</time></trkpt><trkpt lat="51.7945764866" lon="-2.4459320493"><ele>11.67</ele><time>2017-04-05T10:40:11Z</time></trkpt><trkpt lat="51.7947566975" lon="-2.4459468015"><ele>11.19</ele><time>2017-04-05T10:40:30Z</time></trkpt><trkpt lat="51.7947924882" lon="-2.4459424429"><ele>11.67</ele><time>2017-04-05T10:40:36Z</time></trkpt><trkpt lat="51.7948237527" lon="-2.4459464662"><ele>11.19</ele><time>2017-04-05T10:40:39Z</time></trkpt><trkpt lat="51.7948976811" lon="-2.4459399283"><ele>11.67</ele><time>2017-04-05T10:40:46Z</time></trkpt><trkpt lat="51.7950871959" lon="-2.4459463824"><ele>11.19</ele><time>2017-04-05T10:41:05Z</time></trkpt><trkpt lat="51.7952522356" lon="-2.4459317978"><ele>11.19</ele><time>2017-04-05T10:41:21Z</time></trkpt><trkpt lat="51.7953861784" lon="-2.4459132738"><ele>11.67</ele><time>2017-04-05T10:41:38Z</time></trkpt><trkpt lat="51.7953989189" lon="-2.4459112622"><ele>10.23</ele><time>2017-04-05T10:41:41Z</time></trkpt><trkpt lat="51.7954531498" lon="-2.4458885472"><ele>10.71</ele><time>2017-04-05T10:41:47Z</time></trkpt><trkpt lat="51.7956583388" lon="-2.4458486494"><ele>11.19</ele><time>2017-04-05T10:42:08Z</time></trkpt><trkpt lat="51.7958197743" lon="-2.4458075780"><ele>12.15</ele><time>2017-04-05T10:42:25Z</time></trkpt><trkpt lat="51.7958643660" lon="-2.4457836896"><ele>11.67</ele><time>2017-04-05T10:42:29Z</time></trkpt><trkpt lat="51.7960564792" lon="-2.4457058217"><ele>11.67</ele><time>2017-04-05T10:42:48Z</time></trkpt><trkpt lat="51.7961610015" lon="-2.4456614815"><ele>12.63</ele><time>2017-04-05T10:43:06Z</time></trkpt><trkpt lat="51.7963250354" lon="-2.4455662630"><ele>12.63</ele><time>2017-04-05T10:43:24Z</time></trkpt><trkpt lat="51.7964803521" lon="-2.4454787560"><ele>12.15</ele><time>2017-04-05T10:43:42Z</time></trkpt><trkpt lat="51.7966383509" lon="-2.4453851301"><ele>12.15</ele><time>2017-04-05T10:44:01Z</time></trkpt><trkpt lat="51.7968041450" lon="-2.4452841282"><ele>12.15</ele><time>2017-04-05T10:44:20Z</time></trkpt><trkpt lat="51.7969861999" lon="-2.4451605789"><ele>11.67</ele><time>2017-04-05T10:44:42Z</time></trkpt><trkpt lat="51.7971861083" lon="-2.4450639356"><ele>11.19</ele><time>2017-04-05T10:45:03Z</time></trkpt><trkpt lat="51.7973373178" lon="-2.4449712317"><ele>11.67</ele><time>2017-04-05T10:45:24Z</time></trkpt><trkpt lat="51.7974617053" lon="-2.4448733311"><ele>11.67</ele><time>2017-04-05T10:45:44Z</time></trkpt><trkpt lat="51.7976790480" lon="-2.4447716586"><ele>11.19</ele><time>2017-04-05T10:46:06Z</time></trkpt><trkpt lat="51.7978568282" lon="-2.4446554016"><ele>10.71</ele><time>2017-04-05T10:46:25Z</time></trkpt><trkpt lat="51.7980360333" lon="-2.4445504602"><ele>10.71</ele><time>2017-04-05T10:46:45Z</time></trkpt><trkpt lat="51.7982123047" lon="-2.4444570858"><ele>11.67</ele><time>2017-04-05T10:47:06Z</time></trkpt><trkpt lat="51.7983914260" lon="-2.4443600234"><ele>10.23</ele><time>2017-04-05T10:47:27Z</time></trkpt><trkpt lat="51.7985547055" lon="-2.4442738574"><ele>11.19</ele><time>2017-04-05T10:47:46Z</time></trkpt><trkpt lat="51.7987063341" lon="-2.4441887811"><ele>11.19</ele><time>2017-04-05T10:48:03Z</time></trkpt><trkpt lat="51.7988902330" lon="-2.4440529104"><ele>10.23</ele><time>2017-04-05T10:48:25Z</time></trkpt><trkpt lat="51.7989080027" lon="-2.4440472107"><ele>11.19</ele><time>2017-04-05T10:48:27Z</time></trkpt><trkpt lat="51.7990553565" lon="-2.4439328816"><ele>10.23</ele><time>2017-04-05T10:48:45Z</time></trkpt><trkpt lat="51.7992165405" lon="-2.4437929876"><ele>11.19</ele><time>2017-04-05T10:49:04Z</time></trkpt><trkpt lat="51.7993890401" lon="-2.4436342344"><ele>11.19</ele><time>2017-04-05T10:49:25Z</time></trkpt><trkpt lat="51.7995438538" lon="-2.4434684403"><ele>10.71</ele><time>2017-04-05T10:49:45Z</time></trkpt><trkpt lat="51.7995999288" lon="-2.4434073362"><ele>11.67</ele><time>2017-04-05T10:50:03Z</time></trkpt><trkpt lat="51.7996039521" lon="-2.4433676898"><ele>12.15</ele><time>2017-04-05T10:50:19Z</time></trkpt><trkpt lat="51.7996243201" lon="-2.4433555361"><ele>12.63</ele><time>2017-04-05T10:50:32Z</time></trkpt><trkpt lat="51.7997026071" lon="-2.4432598148"><ele>11.67</ele><time>2017-04-05T10:50:53Z</time></trkpt><trkpt lat="51.7996790539" lon="-2.4430443998"><ele>10.71</ele><time>2017-04-05T10:51:09Z</time></trkpt><trkpt lat="51.7996335402" lon="-2.4428656977"><ele>10.23</ele><time>2017-04-05T10:51:23Z</time></trkpt><trkpt lat="51.7995982524" lon="-2.4426001590"><ele>9.75</ele><time>2017-04-05T10:51:42Z</time></trkpt><trkpt lat="51.7995560914" lon="-2.4423641246"><ele>10.23</ele><time>2017-04-05T10:52:00Z</time></trkpt><trkpt lat="51.7995401658" lon="-2.4421330355"><ele>10.71</ele><time>2017-04-05T10:52:17Z</time></trkpt><trkpt lat="51.7995133437" lon="-2.4419149384"><ele>10.23</ele><time>2017-04-05T10:52:33Z</time></trkpt><trkpt lat="51.7994933948" lon="-2.4417583644"><ele>10.71</ele><time>2017-04-05T10:52:44Z</time></trkpt><trkpt lat="51.7994736135" lon="-2.4416217394"><ele>10.71</ele><time>2017-04-05T10:53:02Z</time></trkpt><trkpt lat="51.7994691711" lon="-2.4415469728"><ele>11.67</ele><time>2017-04-05T10:53:22Z</time></trkpt><trkpt lat="51.7994260043" lon="-2.4414219148"><ele>10.23</ele><time>2017-04-05T10:53:37Z</time></trkpt><trkpt lat="51.7994037084" lon="-2.4412689451"><ele>11.19</ele><time>2017-04-05T10:53:55Z</time></trkpt><trkpt lat="51.7993809097" lon="-2.4410354253"><ele>9.75</ele><time>2017-04-05T10:54:17Z</time></trkpt><trkpt lat="51.7992728669" lon="-2.4407677073"><ele>8.79</ele><time>2017-04-05T10:54:35Z</time></trkpt><trkpt lat="51.7991084978" lon="-2.4406049307"><ele>9.27</ele><time>2017-04-05T10:54:55Z</time></trkpt><trkpt lat="51.7990483157" lon="-2.4405030906"><ele>8.79</ele><time>2017-04-05T10:55:10Z</time></trkpt><trkpt lat="51.7989632394" lon="-2.4401891883"><ele>8.79</ele><time>2017-04-05T10:55:29Z</time></trkpt><trkpt lat="51.7989318911" lon="-2.4399555009"><ele>8.79</ele><time>2017-04-05T10:55:43Z</time></trkpt><trkpt lat="51.7989186477" lon="-2.4397103302"><ele>8.79</ele><time>2017-04-05T10:55:58Z</time></trkpt><trkpt lat="51.7988665961" lon="-2.4394147005"><ele>7.83</ele><time>2017-04-05T10:56:16Z</time></trkpt><trkpt lat="51.7988275364" lon="-2.4392568693"><ele>8.79</ele><time>2017-04-05T10:56:30Z</time></trkpt><trkpt lat="51.7987966910" lon="-2.4389689509"><ele>8.79</ele><time>2017-04-05T10:56:48Z</time></trkpt><trkpt lat="51.7987634148" lon="-2.4387033284"><ele>7.83</ele><time>2017-04-05T10:57:05Z</time></trkpt><trkpt lat="51.7987389397" lon="-2.4385705590"><ele>9.27</ele><time>2017-04-05T10:57:14Z</time></trkpt><trkpt lat="51.7987011373" lon="-2.4383056909"><ele>8.31</ele><time>2017-04-05T10:57:33Z</time></trkpt><trkpt lat="51.7986707110" lon="-2.4380735960"><ele>7.83</ele><time>2017-04-05T10:57:48Z</time></trkpt><trkpt lat="51.7986245267" lon="-2.4377576821"><ele>7.83</ele><time>2017-04-05T10:58:06Z</time></trkpt><trkpt lat="51.7985946033" lon="-2.4374932330"><ele>8.31</ele><time>2017-04-05T10:58:23Z</time></trkpt><trkpt lat="51.7985690385" lon="-2.4371862039"><ele>8.31</ele><time>2017-04-05T10:58:41Z</time></trkpt><trkpt lat="51.7985307332" lon="-2.4369128700"><ele>7.83</ele><time>2017-04-05T10:58:59Z</time></trkpt><trkpt lat="51.7984816991" lon="-2.4366339203"><ele>7.83</ele><time>2017-04-05T10:59:18Z</time></trkpt><trkpt lat="51.7984325811" lon="-2.4363747519"><ele>8.31</ele><time>2017-04-05T10:59:36Z</time></trkpt><trkpt lat="51.7984272167" lon="-2.4362619314"><ele>7.83</ele><time>2017-04-05T10:59:50Z</time></trkpt><trkpt lat="51.7983979639" lon="-2.4362061080"><ele>7.35</ele><time>2017-04-05T10:59:55Z</time></trkpt><trkpt lat="51.7983874027" lon="-2.4360992387"><ele>7.83</ele><time>2017-04-05T11:00:02Z</time></trkpt><trkpt lat="51.7983623408" lon="-2.4357558321"><ele>6.87</ele><time>2017-04-05T11:00:24Z</time></trkpt><trkpt lat="51.7983741593" lon="-2.4357240647"><ele>8.31</ele><time>2017-04-05T11:00:41Z</time></trkpt><trkpt lat="51.7983449902" lon="-2.4357174430"><ele>7.83</ele><time>2017-04-05T11:00:52Z</time></trkpt><trkpt lat="51.7983316630" lon="-2.4356959853"><ele>7.35</ele><time>2017-04-05T11:00:54Z</time></trkpt><trkpt lat="51.7983103730" lon="-2.4355367292"><ele>7.35</ele><time>2017-04-05T11:01:04Z</time></trkpt><trkpt lat="51.7982909270" lon="-2.4353576079"><ele>7.35</ele><time>2017-04-05T11:01:15Z</time></trkpt><trkpt lat="51.7982443236" lon="-2.4350694381"><ele>6.39</ele><time>2017-04-05T11:01:32Z</time></trkpt><trkpt lat="51.7982200999" lon="-2.4348037317"><ele>7.35</ele><time>2017-04-05T11:01:48Z</time></trkpt><trkpt lat="51.7982146516" lon="-2.4347874708"><ele>7.35</ele><time>2017-04-05T11:01:49Z</time></trkpt><trkpt lat="51.7982096225" lon="-2.4347571284"><ele>14.56</ele><time>2017-04-05T11:01:51Z</time></trkpt><trkpt lat="51.7982040904" lon="-2.4347417057"><ele>7.35</ele><time>2017-04-05T11:01:52Z</time></trkpt><trkpt lat="51.7981629353" lon="-2.4345069285"><ele>6.87</ele><time>2017-04-05T11:02:07Z</time></trkpt><trkpt lat="51.7981261387" lon="-2.4342040066"><ele>7.35</ele><time>2017-04-05T11:02:24Z</time></trkpt><trkpt lat="51.7980781943" lon="-2.4339401443"><ele>7.35</ele><time>2017-04-05T11:02:41Z</time></trkpt><trkpt lat="51.7980431579" lon="-2.4336773716"><ele>7.35</ele><time>2017-04-05T11:02:57Z</time></trkpt><trkpt lat="51.7980071995" lon="-2.4333763774"><ele>6.87</ele><time>2017-04-05T11:03:14Z</time></trkpt><trkpt lat="51.7979709897" lon="-2.4331124313"><ele>6.87</ele><time>2017-04-05T11:03:30Z</time></trkpt><trkpt lat="51.7979284935" lon="-2.4328458030"><ele>6.87</ele><time>2017-04-05T11:03:45Z</time></trkpt><trkpt lat="51.7978881765" lon="-2.4325403664"><ele>7.35</ele><time>2017-04-05T11:04:02Z</time></trkpt><trkpt lat="51.7978403158" lon="-2.4322270509"><ele>7.35</ele><time>2017-04-05T11:04:22Z</time></trkpt><trkpt lat="51.7978102248" lon="-2.4319524597"><ele>6.87</ele><time>2017-04-05T11:04:39Z</time></trkpt><trkpt lat="51.7977699917" lon="-2.4316911958"><ele>6.87</ele><time>2017-04-05T11:04:57Z</time></trkpt><trkpt lat="51.7977687344" lon="-2.4315916188"><ele>6.87</ele><time>2017-04-05T11:05:10Z</time></trkpt><trkpt lat="51.7977532279" lon="-2.4315642100"><ele>7.35</ele><time>2017-04-05T11:05:23Z</time></trkpt><trkpt lat="51.7977124918" lon="-2.4312713463"><ele>6.87</ele><time>2017-04-05T11:05:38Z</time></trkpt><trkpt lat="51.7976741027" lon="-2.4309225753"><ele>7.35</ele><time>2017-04-05T11:05:58Z</time></trkpt><trkpt lat="51.7976403236" lon="-2.4306625687"><ele>7.35</ele><time>2017-04-05T11:06:15Z</time></trkpt><trkpt lat="51.7975964863" lon="-2.4303462356"><ele>7.35</ele><time>2017-04-05T11:06:35Z</time></trkpt><trkpt lat="51.7975554150" lon="-2.4300938565"><ele>6.87</ele><time>2017-04-05T11:06:51Z</time></trkpt><trkpt lat="51.7975120805" lon="-2.4298176728"><ele>7.35</ele><time>2017-04-05T11:07:08Z</time></trkpt><trkpt lat="51.7974601965" lon="-2.4294972327"><ele>7.35</ele><time>2017-04-05T11:07:29Z</time></trkpt><trkpt lat="51.7974359728" lon="-2.4292309396"><ele>7.83</ele><time>2017-04-05T11:07:47Z</time></trkpt><trkpt lat="51.7973898724" lon="-2.4289563484"><ele>7.83</ele><time>2017-04-05T11:08:06Z</time></trkpt><trkpt lat="51.7973317858" lon="-2.4287140276"><ele>7.83</ele><time>2017-04-05T11:08:26Z</time></trkpt><trkpt lat="51.7973306961" lon="-2.4287125189"><ele>7.35</ele><time>2017-04-05T11:08:27Z</time></trkpt><trkpt lat="51.7972987611" lon="-2.4283956829"><ele>7.35</ele><time>2017-04-05T11:08:46Z</time></trkpt><trkpt lat="51.7972752079" lon="-2.4281250313"><ele>7.35</ele><time>2017-04-05T11:09:04Z</time></trkpt><trkpt lat="51.7972157802" lon="-2.4279133044"><ele>7.35</ele><time>2017-04-05T11:09:19Z</time></trkpt><trkpt lat="51.7972021177" lon="-2.4278543796"><ele>7.35</ele><time>2017-04-05T11:09:35Z</time></trkpt><trkpt lat="51.7972006928" lon="-2.4277641065"><ele>7.35</ele><time>2017-04-05T11:09:48Z</time></trkpt><trkpt lat="51.7971645668" lon="-2.4275175948"><ele>7.35</ele><time>2017-04-05T11:10:05Z</time></trkpt><trkpt lat="51.7971352302" lon="-2.4274263997"><ele>7.35</ele><time>2017-04-05T11:10:20Z</time></trkpt><trkpt lat="51.7971344758" lon="-2.4274284113"><ele>6.87</ele><time>2017-04-05T11:10:47Z</time></trkpt><trkpt lat="51.7971263453" lon="-2.4273362942"><ele>7.35</ele><time>2017-04-05T11:11:02Z</time></trkpt><trkpt lat="51.7971203104" lon="-2.4272975698"><ele>7.35</ele><time>2017-04-05T11:11:04Z</time></trkpt><trkpt lat="51.7970573623" lon="-2.4269401655"><ele>6.87</ele><time>2017-04-05T11:11:20Z</time></trkpt><trkpt lat="51.7970157880" lon="-2.4267411791"><ele>6.87</ele><time>2017-04-05T11:11:34Z</time></trkpt><trkpt lat="51.7969157919" lon="-2.4265146162"><ele>7.35</ele><time>2017-04-05T11:11:52Z</time></trkpt><trkpt lat="51.7968319729" lon="-2.4263328128"><ele>6.87</ele><time>2017-04-05T11:12:07Z</time></trkpt><trkpt lat="51.7967463937" lon="-2.4261263665"><ele>7.35</ele><time>2017-04-05T11:12:21Z</time></trkpt><trkpt lat="51.7966717947" lon="-2.4259266257"><ele>6.87</ele><time>2017-04-05T11:12:35Z</time></trkpt><trkpt lat="51.7966634128" lon="-2.4258977920"><ele>7.35</ele><time>2017-04-05T11:12:37Z</time></trkpt><trkpt lat="51.7966397759" lon="-2.4258233607"><ele>6.87</ele><time>2017-04-05T11:12:47Z</time></trkpt><trkpt lat="51.7966012191" lon="-2.4256781023"><ele>7.35</ele><time>2017-04-05T11:12:56Z</time></trkpt><trkpt lat="51.7965132091" lon="-2.4254019186"><ele>7.35</ele><time>2017-04-05T11:13:14Z</time></trkpt><trkpt lat="51.7964554578" lon="-2.4252121523"><ele>7.83</ele><time>2017-04-05T11:13:28Z</time></trkpt><trkpt lat="51.7963958625" lon="-2.4249910377"><ele>7.83</ele><time>2017-04-05T11:13:43Z</time></trkpt><trkpt lat="51.7963577248" lon="-2.4248462822"><ele>9.27</ele><time>2017-04-05T11:13:58Z</time></trkpt><trkpt lat="51.7963489238" lon="-2.4247391615"><ele>10.23</ele><time>2017-04-05T11:14:14Z</time></trkpt><trkpt lat="51.7964002211" lon="-2.4245212320"><ele>9.75</ele><time>2017-04-05T11:14:29Z</time></trkpt><trkpt lat="51.7964534461" lon="-2.4244612176"><ele>9.75</ele><time>2017-04-05T11:14:49Z</time></trkpt><trkpt lat="51.7966049910" lon="-2.4243869539"><ele>9.27</ele><time>2017-04-05T11:15:05Z</time></trkpt><trkpt lat="51.7966722976" lon="-2.4242497422"><ele>10.23</ele><time>2017-04-05T11:15:21Z</time></trkpt><trkpt lat="51.7967111059" lon="-2.4242309667"><ele>10.23</ele><time>2017-04-05T11:15:28Z</time></trkpt><trkpt lat="51.7967116088" lon="-2.4241895601"><ele>10.23</ele><time>2017-04-05T11:15:39Z</time></trkpt><trkpt lat="51.7967048194" lon="-2.4241989478"><ele>6.39</ele><time>2017-04-05T11:15:45Z</time></trkpt><trkpt lat="51.7967055738" lon="-2.4242028873"><ele>10.71</ele><time>2017-04-05T11:15:46Z</time></trkpt><trkpt lat="51.7967047356" lon="-2.4242182262"><ele>10.23</ele><time>2017-04-05T11:15:54Z</time></trkpt></trkseg></trk></gpx>